الكل
Glenbrook NPWS Airport (Glenbrook, NSW) YGLK حالة الطقس
There is no TAF data available at YGLK. Showing TAF data for YSWS (9 mi جنوبي شرقي).
توقع منطقة محطة المطار WSI (لا توجد بيانات لـYGLK)
| Here is the undecoded forecast: 2026/09/04 12:00 YSWS 041127Z 0412/0512 VRB03KT CAVOK BECMG 0423/0501 01015KT CAVOK FM050300 30020G32KT CAVOK FM051000 25010KT CAVOK PROB30 INTER 0505/0510 VRB30G50KT 5000 TSRA SCT100CB |
There is no METAR data available at YGLK. Showing METAR data for YSWS (9 mi جنوبي شرقي).
محفوظات أحدث تقرير روتيني عن حالة الطقس من أجل الطيران (الميتار) WSI ( لا توجد بيانات لـYGLK)
| Date | Time (AEST) | Flight Rules | Wind Dir. | Speed | Type | Height AGL (ft) | Visibility | Temp (°C) | Temp (°F) | Dew Point (°C) | Dew Point (°F) | Rel. Humid. | Pressure | Density Altitude | Remarks |
|---|---|---|---|---|---|---|---|---|---|---|---|---|---|---|---|
| 04-سبت | 22:30 | VFR | 20° | 5 kt | 10000 meters | 15° | 59° | 10° | 50° | 72% | 1018 mb | 118 ft | |||
| 04-سبت | 22:00 | VFR | 30° | 4 kt | 10000 meters | 15° | 59° | 10° | 50° | 72% | 1019 mb | 89 ft | |||
| 04-سبت | 21:30 | VFR | Calm | 10000 meters | 16° | 60° | 10° | 50° | 68% | 1019 mb | 209 ft | ||||
| 04-سبت | 21:00 | VFR | 160° | 4 kt | 10000 meters | 17° | 62° | 10° | 50° | 63% | 1019 mb | 329 ft | |||
| 04-سبت | 20:30 | VFR | 170° | 5 kt | 10000 meters | 17° | 62° | 10° | 50° | 63% | 1018 mb | 358 ft | |||
| 04-سبت | 20:00 | VFR | 180° | 7 kt | 10000 meters | 17° | 62° | 10° | 50° | 63% | 1018 mb | 358 ft | |||
| 04-سبت | 19:30 | VFR | 220° | 8 kt | 10000 meters | 16° | 60° | 8° | 46° | 59% | 1018 mb | 238 ft | |||
| 04-سبت | 19:00 | VFR | 300° | 5 kt | 10000 meters | 19° | 66° | 7° | 44° | 46% | 1017 mb | 628 ft | |||
| 04-سبت | 18:30 | VFR | 20° | 3 kt | 10000 meters | 20° | 68° | 6° | 42° | 40% | 1017 mb | 748 ft | |||
| 04-سبت | 18:00 | VFR | 30° | 4 kt | 10000 meters | 21° | 69° | 6° | 42° | 38% | 1017 mb | 868 ft | |||
| 04-سبت | 17:30 | VFR | 20° | 4 kt | 10000 meters | 21° | 69° | 7° | 44° | 40% | 1016 mb | 898 ft | |||
| 04-سبت | 17:00 | VFR | 30° | 6 kt | 10000 meters | 22° | 71° | 7° | 44° | 38% | 1016 mb | 1,018 ft | |||
| 04-سبت | 16:30 | VFR | 30° | 4 kt | 10000 meters | 23° | 73° | 6° | 42° | 33% | 1016 mb | 1,138 ft | |||
| 04-سبت | 16:00 | VFR | 30° | 5 kt | 10000 meters | 23° | 73° | 6° | 42° | 33% | 1016 mb | 1,138 ft | |||
| 04-سبت | 15:30 | VFR | 60° | 7 kt | 10000 meters | 23° | 73° | 7° | 44° | 36% | 1016 mb | 1,138 ft | |||
| 04-سبت | 15:00 | VFR | 30° | 5 kt | 10000 meters | 23° | 73° | 6° | 42° | 33% | 1016 mb | 1,138 ft | |||
| 04-سبت | 14:30 | VFR | 60° | 7 kt | 10000 meters | 23° | 73° | 7° | 44° | 36% | 1016 mb | 1,138 ft | |||
| 04-سبت | 14:00 | VFR | 20° | 8 kt | 10000 meters | 23° | 73° | 7° | 44° | 36% | 1017 mb | 1,108 ft | |||
| 04-سبت | 13:30 | VFR | 10° | 5 kt | 10000 meters | 23° | 73° | 7° | 44° | 36% | 1017 mb | 1,108 ft | |||
| 04-سبت | 13:00 | VFR | 360° | 4 kt | 10000 meters | 23° | 73° | 8° | 46° | 38% | 1018 mb | 1,078 ft | |||
| 04-سبت | 12:30 | VFR | 250° | 7 kt | 10000 meters | 22° | 71° | 6° | 42° | 35% | 1018 mb | 958 ft | |||
| 04-سبت | 12:00 | VFR | 220° | 6 kt | 10000 meters | 21° | 69° | 7° | 44° | 40% | 1019 mb | 809 ft | |||
| 04-سبت | 11:30 | VFR | 200° | 11 kt | 10000 meters | 21° | 69° | 7° | 44° | 40% | 1020 mb | 779 ft | |||
| 04-سبت | 11:00 | VFR | 200° | 12 kt | 10000 meters | 20° | 68° | 6° | 42° | 40% | 1020 mb | 659 ft |
تسجيل الدخول
| مُتصفحك غير مُدعَّم. قم بترقية متصفحك |
